Time;durP1;ratioP1;P1;durP2;ratioP2;P2;SDS_P1;SDS_P2;PMS_P1;PMS_P2;Temp;Humidity;BMP_temperature;BMP_pressure;BME280_temperature;BME280_humidity;BME280_pressure;Samples;Min_cycle;Max_cycle;Signal;HPM_P1;HPM_P2
2023/05/17 00:01:18;;;;;;;;;5.25;5.25;;;;;15.25;50.87;101865.06;5013993;28;46064;-61
2023/05/17 00:03:44;;;;;;;;;5.50;4.00;;;;;15.21;50.69;101863.81;5014059;28;45311;-61
2023/05/17 00:06:09;;;;;;;;;6.00;6.00;;;;;15.15;50.67;101865.50;5014365;28;45451;-61
2023/05/17 00:08:35;;;;;;;;;5.00;5.00;;;;;15.06;50.54;101852.97;5014156;28;45600;-60
2023/05/17 00:11:00;;;;;;;;;5.00;4.00;;;;;15.10;50.63;101863.38;5010483;28;45518;-61
2023/05/17 00:13:26;;;;;;;;;6.25;6.00;;;;;14.97;51.19;101867.03;4990387;28;45412;-61
2023/05/17 00:15:51;;;;;;;;;5.75;5.25;;;;;14.93;51.22;101870.44;5014119;28;45401;-61
2023/05/17 00:18:17;;;;;;;;;9.50;8.75;;;;;14.98;50.80;101867.88;5014223;28;45404;-61
2023/05/17 00:20:42;;;;;;;;;4.75;4.75;;;;;14.98;50.77;101862.34;5013684;28;46032;-60
2023/05/17 00:23:08;;;;;;;;;7.75;6.00;;;;;14.96;51.08;101864.47;5014327;28;45422;-60
2023/05/17 00:25:34;;;;;;;;;5.00;5.00;;;;;14.92;50.58;101855.75;5012925;28;45497;-62
2023/05/17 00:27:59;;;;;;;;;5.00;5.00;;;;;14.97;50.89;101855.97;5010368;28;45479;-62
2023/05/17 00:30:25;;;;;;;;;6.25;6.25;;;;;14.93;51.04;101854.69;4996285;28;46657;-61
2023/05/17 00:32:50;;;;;;;;;6.00;5.00;;;;;14.98;50.64;101859.56;4997817;28;45193;-61
2023/05/17 00:35:16;;;;;;;;;7.75;6.50;;;;;14.92;50.83;101853.00;4997904;28;45300;-61
2023/05/17 00:37:46;;;;;;;;;6.00;4.25;;;;;15.06;50.38;101861.28;4997712;28;45422;-62
2023/05/17 00:40:12;;;;;;;;;6.00;4.60;;;;;14.85;50.66;101838.34;4980856;28;45416;-61
2023/05/17 00:42:38;;;;;;;;;6.60;6.40;;;;;14.87;50.36;101861.94;4997377;28;45312;-62
2023/05/17 00:45:04;;;;;;;;;6.50;5.00;;;;;14.78;50.83;101865.97;4979710;28;45437;-63
2023/05/17 00:47:29;;;;;;;;;9.20;6.40;;;;;14.72;50.67;101856.59;4980109;28;45389;-61
2023/05/17 00:49:55;;;;;;;;;6.75;5.00;;;;;14.81;50.53;101868.31;4996891;28;46365;-62
2023/05/17 00:52:20;;;;;;;;;5.25;4.00;;;;;14.77;50.98;101861.50;4997244;28;45274;-61
2023/05/17 00:54:46;;;;;;;;;5.00;5.00;;;;;14.57;51.48;101851.25;4979522;28;45378;-62
2023/05/17 00:57:12;;;;;;;;;5.25;4.50;;;;;14.54;51.70;101867.41;4997752;28;45410;-61
2023/05/17 00:59:37;;;;;;;;;6.00;6.00;;;;;14.60;51.48;101869.34;4997400;28;45265;-62
2023/05/17 01:02:03;;;;;;;;;6.75;5.50;;;;;14.53;51.72;101862.94;4963374;28;45454;-62
2023/05/17 01:04:29;;;;;;;;;5.00;5.00;;;;;14.54;51.82;101859.13;4997463;28;45173;-62
2023/05/17 01:06:54;;;;;;;;;6.20;5.00;;;;;14.54;51.21;101862.75;4997424;28;45665;-62
2023/05/17 01:09:20;;;;;;;;;10.00;6.25;;;;;14.53;51.96;101862.94;4996908;28;46020;-61
2023/05/17 01:11:57;;;;;;;;;7.25;5.75;;;;;14.55;51.62;101858.91;4997034;28;45351;-60
2023/05/17 01:14:41;;;;;;;;;6.00;6.00;;;;;14.58;51.79;101854.88;4997047;28;45422;-61
2023/05/17 01:17:13;;;;;;;;;13.60;6.20;;;;;14.60;51.34;101844.47;4997092;28;45364;-62
2023/05/17 01:19:55;;;;;;;;;5.00;3.80;;;;;14.68;51.22;101852.53;4979532;28;45618;-62
2023/05/17 01:22:46;;;;;;;;;5.40;5.40;;;;;14.73;51.16;101855.53;4996536;28;45252;-62
2023/05/17 01:25:50;;;;;;;;;7.40;5.60;;;;;14.76;50.92;101855.16;4979569;28;45451;-62
2023/05/17 01:28:15;;;;;;;;;6.20;6.20;;;;;14.63;51.45;101861.47;5015189;28;45490;-62
2023/05/17 01:30:40;;;;;;;;;4.25;2.75;;;;;14.61;51.71;101848.94;4998536;28;46242;-62
2023/05/17 01:33:06;;;;;;;;;3.75;3.00;;;;;14.55;51.39;101850.63;4998446;28;45456;-62
2023/05/17 01:35:31;;;;;;;;;8.25;5.00;;;;;14.56;51.89;101854.25;4998798;28;45397;-62
2023/05/17 01:37:57;;;;;;;;;6.50;5.50;;;;;14.53;51.78;101865.72;5016642;28;45676;-62
2023/05/17 01:40:22;;;;;;;;;5.00;5.00;;;;;14.51;51.78;101854.88;5014770;28;46191;-62
2023/05/17 01:42:52;;;;;;;;;6.25;6.25;;;;;14.58;51.90;101854.88;4997706;28;45395;-62
2023/05/17 01:45:22;;;;;;;;;5.20;4.00;;;;;14.55;51.67;101835.97;5016292;28;45230;-62
2023/05/17 01:48:09;;;;;;;;;6.00;5.20;;;;;14.67;51.42;101850.00;4998453;28;45488;-62
2023/05/17 01:50:35;;;;;;;;;9.60;6.40;;;;;14.66;51.49;101851.91;5016181;28;46434;-62
2023/05/17 01:53:12;;;;;;;;;4.00;4.00;;;;;14.70;51.66;101844.03;4998352;28;45190;-62
2023/05/17 01:55:48;;;;;;;;;6.40;6.00;;;;;14.71;51.67;101848.50;5031603;28;45452;-62
2023/05/17 01:58:14;;;;;;;;;6.20;6.20;;;;;14.59;51.50;101838.13;5016596;28;45659;-61
2023/05/17 02:00:40;;;;;;;;;6.75;5.00;;;;;14.67;51.70;101853.59;5014693;28;47338;-62
2023/05/17 02:03:06;;;;;;;;;7.00;4.00;;;;;14.74;51.84;101853.66;4989308;28;45966;-62
2023/05/17 02:05:31;;;;;;;;;8.25;6.75;;;;;14.75;51.51;101852.59;5016205;28;45412;-61
2023/05/17 02:07:56;;;;;;;;;8.00;5.50;;;;;14.60;51.95;101847.22;4998191;28;45533;-62
2023/05/17 02:10:22;;;;;;;;;8.00;6.75;;;;;14.67;52.12;101850.84;5016088;28;46000;-61
2023/05/17 02:12:47;;;;;;;;;7.00;7.00;;;;;14.72;52.07;101848.31;5015776;28;45284;-61
2023/05/17 02:15:15;;;;;;;;;6.25;5.50;;;;;14.82;52.16;101855.34;5015706;28;45375;-62
2023/05/17 02:17:40;;;;;;;;;8.40;5.60;;;;;14.83;52.08;101844.06;5015907;28;45587;-62
2023/05/17 02:20:07;;;;;;;;;7.25;6.75;;;;;14.80;51.96;101835.34;5014404;28;47200;-62
2023/05/17 02:22:32;;;;;;;;;7.20;7.20;;;;;14.80;51.80;101850.03;5015528;28;45299;-62
2023/05/17 02:24:58;;;;;;;;;7.00;7.00;;;;;14.72;52.31;101837.25;5031304;28;45388;-62
2023/05/17 02:27:23;;;;;;;;;10.75;7.00;;;;;14.60;52.36;101845.34;5016029;28;45506;-61
2023/05/17 02:29:49;;;;;;;;;8.00;8.00;;;;;14.64;52.43;101856.81;5016640;28;46248;-62
2023/05/17 02:32:14;;;;;;;;;10.50;8.25;;;;;14.55;52.51;101853.41;4983822;28;45324;-61
2023/05/17 02:34:40;;;;;;;;;14.00;10.75;;;;;14.72;52.16;101859.34;5016666;28;45386;-61
2023/05/17 02:37:05;;;;;;;;;10.00;10.00;;;;;14.75;52.02;101853.44;4979180;28;45486;-61
2023/05/17 02:39:34;;;;;;;;;9.75;7.75;;;;;14.79;52.48;101869.59;4978153;28;47526;-61
2023/05/17 02:41:59;;;;;;;;;9.00;9.00;;;;;14.84;52.07;101858.75;4995491;28;45386;-62
2023/05/17 02:44:25;;;;;;;;;7.75;6.00;;;;;14.91;51.75;101865.94;4995802;28;45413;-61
2023/05/17 02:46:50;;;;;;;;;7.75;6.75;;;;;14.89;52.06;101872.78;4996061;28;45201;-62
2023/05/17 02:49:16;;;;;;;;;10.00;8.25;;;;;14.72;52.04;101848.31;4977974;28;46309;-62
2023/05/17 02:51:41;;;;;;;;;10.75;7.75;;;;;14.72;52.75;101862.13;4995725;28;45251;-62
2023/05/17 02:54:07;;;;;;;;;11.75;10.00;;;;;14.79;52.47;101864.94;4995290;28;45214;-62
2023/05/17 02:56:32;;;;;;;;;13.50;11.25;;;;;14.77;52.61;101864.25;4996217;28;45315;-63
2023/05/17 02:59:00;;;;;;;;;7.50;7.50;;;;;14.83;52.47;101866.19;4995026;28;46155;-63
2023/05/17 03:01:26;;;;;;;;;7.20;6.00;;;;;14.87;52.41;101867.47;4995590;28;45482;-61
2023/05/17 03:03:51;;;;;;;;;8.80;8.00;;;;;14.94;51.75;101872.97;4995222;28;45353;-61
2023/05/17 03:06:17;;;;;;;;;13.00;11.75;;;;;14.95;51.67;101880.22;4961652;28;45450;-62
2023/05/17 03:08:42;;;;;;;;;12.25;8.00;;;;;14.90;52.02;101872.56;4995248;28;45661;-61
2023/05/17 03:11:07;;;;;;;;;9.75;8.50;;;;;14.88;52.25;101873.81;4995001;28;45380;-61
2023/05/17 03:13:33;;;;;;;;;12.25;10.75;;;;;14.89;51.58;101873.63;4995700;28;45404;-61
2023/05/17 03:15:58;;;;;;;;;10.25;10.25;;;;;14.88;51.44;101871.94;4995335;28;45336;-61
2023/05/17 03:18:24;;;;;;;;;10.50;10.50;;;;;14.83;52.31;101865.34;4994904;28;45674;-62
2023/05/17 03:20:50;;;;;;;;;11.00;11.00;;;;;14.83;52.40;101879.16;4995178;28;45463;-61
2023/05/17 03:23:15;;;;;;;;;11.75;8.50;;;;;14.73;52.32;101866.56;4977033;28;45404;-61
2023/05/17 03:25:41;;;;;;;;;12.50;9.50;;;;;14.61;52.83;101873.78;4977547;28;45253;-62
2023/05/17 03:28:06;;;;;;;;;12.00;12.00;;;;;14.58;52.81;101877.00;4994566;28;45451;-62
2023/05/17 03:30:31;;;;;;;;;12.75;10.25;;;;;14.45;52.72;101845.53;4994971;28;45203;-61
2023/05/17 03:32:57;;;;;;;;;10.25;8.00;;;;;14.63;52.89;101872.53;4994771;28;45225;-61
2023/05/17 03:35:22;;;;;;;;;11.50;9.25;;;;;14.69;52.65;101876.38;4977255;28;45271;-61
2023/05/17 03:37:48;;;;;;;;;15.00;9.00;;;;;14.73;52.82;101874.03;4977130;28;46931;-60
2023/05/17 03:40:13;;;;;;;;;15.75;15.25;;;;;14.65;53.13;101872.31;4994838;28;45332;-61
2023/05/17 03:42:40;;;;;;;;;12.20;12.20;;;;;14.50;53.41;101858.69;4977307;28;45560;-61
2023/05/17 03:45:06;;;;;;;;;11.25;8.25;;;;;14.61;53.63;101876.56;4994748;28;45523;-61
2023/05/17 03:47:31;;;;;;;;;13.00;12.60;;;;;14.53;53.74;101877.63;4994374;28;47292;-61
2023/05/17 03:49:57;;;;;;;;;19.50;14.50;;;;;14.45;54.06;101873.16;4994619;28;45296;-62
2023/05/17 03:52:22;;;;;;;;;15.50;13.75;;;;;14.48;54.08;101875.47;4976856;28;45418;-62
2023/05/17 03:54:48;;;;;;;;;17.50;17.00;;;;;14.47;54.35;101878.47;4994906;28;45281;-61
2023/05/17 03:57:13;;;;;;;;;18.25;15.50;;;;;14.46;53.77;101885.91;4994453;28;46364;-61
2023/05/17 03:59:39;;;;;;;;;15.25;14.00;;;;;14.30;54.29;101887.13;4976925;28;45343;-61
2023/05/17 04:02:04;;;;;;;;;16.00;16.00;;;;;14.28;54.72;101877.34;4994634;28;45430;-62
2023/05/17 04:04:30;;;;;;;;;8.25;4.50;;;;;14.22;54.96;101893.72;4996981;28;45122;-62
2023/05/17 04:06:56;;;;;;;;;14.50;14.50;;;;;14.30;54.92;101894.59;4983300;28;46576;-61
2023/05/17 04:09:22;;;;;;;;;19.00;17.20;;;;;14.31;54.87;101897.13;5000623;28;45691;-62
2023/05/17 04:11:47;;;;;;;;;18.75;16.25;;;;;14.31;54.83;101907.34;5001051;28;45284;-61
2023/05/17 04:14:13;;;;;;;;;17.50;16.50;;;;;14.29;54.89;101903.94;5000982;28;45332;-61
2023/05/17 04:16:38;;;;;;;;;22.75;20.50;;;;;14.21;55.48;101910.50;4982905;28;46241;-61
2023/05/17 04:19:04;;;;;;;;;17.75;16.00;;;;;13.96;56.17;101894.47;5000530;28;45295;-61
2023/05/17 04:21:30;;;;;;;;;23.00;22.00;;;;;14.07;56.13;101909.59;4982957;28;45427;-61
2023/05/17 04:23:55;;;;;;;;;26.50;23.25;;;;;13.90;56.60;101892.53;4982567;28;45355;-60
2023/05/17 04:26:21;;;;;;;;;20.25;19.00;;;;;14.16;56.30;101918.53;5000353;28;45344;-61
2023/05/17 04:28:46;;;;;;;;;23.75;20.50;;;;;14.20;55.77;101922.59;5000464;28;45514;-61
2023/05/17 04:31:13;;;;;;;;;23.25;20.75;;;;;14.27;55.97;101928.13;5000687;28;45447;-61
2023/05/17 04:33:39;;;;;;;;;21.40;21.20;;;;;14.27;55.66;101930.88;5000496;28;45528;-61
2023/05/17 04:36:05;;;;;;;;;24.75;21.75;;;;;14.30;55.35;101939.59;5000429;28;45471;-61
2023/05/17 04:38:30;;;;;;;;;17.50;17.25;;;;;14.34;55.14;101935.38;5000160;28;45871;-61
2023/05/17 04:41:05;;;;;;;;;24.50;21.75;;;;;14.36;55.00;101936.00;5000858;28;45352;-61
2023/05/17 04:43:31;;;;;;;;;21.60;20.20;;;;;14.28;55.17;101924.31;5000295;28;45332;-60
2023/05/17 04:45:57;;;;;;;;;21.80;21.60;;;;;14.16;55.83;101938.72;5000380;28;46281;-61
2023/05/17 04:48:23;;;;;;;;;21.75;21.25;;;;;14.10;55.09;101945.91;5000348;28;45291;-60
2023/05/17 04:50:48;;;;;;;;;24.00;21.25;;;;;14.02;55.76;101921.25;5000234;28;45385;-62
2023/05/17 04:53:17;;;;;;;;;21.00;18.50;;;;;14.13;55.41;101944.66;4982870;28;45281;-61
2023/05/17 04:55:42;;;;;;;;;16.20;12.60;;;;;14.05;55.80;101953.13;4982045;28;48767;-62
2023/05/17 04:58:08;;;;;;;;;19.50;19.00;;;;;14.01;55.60;101952.69;4982757;28;45485;-62
2023/05/17 05:00:34;;;;;;;;;28.25;22.00;;;;;13.88;56.24;101958.97;5000232;28;45406;-62
2023/05/17 05:02:59;;;;;;;;;19.80;18.00;;;;;13.90;56.30;101956.88;4982751;28;45423;-62
2023/05/17 05:05:25;;;;;;;;;23.00;21.00;;;;;13.84;56.01;101963.22;4999830;28;46356;-62
2023/05/17 05:07:50;;;;;;;;;9.00;5.00;;;;;13.88;56.16;101961.72;4999807;28;45409;-62
2023/05/17 05:10:16;;;;;;;;;17.25;14.25;;;;;13.86;56.22;101971.28;5000022;28;45384;-62
2023/05/17 05:12:42;;;;;;;;;21.75;18.00;;;;;13.92;56.13;101964.94;5000351;28;45668;-62
2023/05/17 05:15:08;;;;;;;;;20.00;18.50;;;;;14.03;55.54;101974.56;4999301;28;45546;-62
2023/05/17 05:17:33;;;;;;;;;21.40;19.20;;;;;13.93;55.70;101970.25;4996485;28;45384;-62
2023/05/17 05:19:59;;;;;;;;;25.75;19.75;;;;;14.05;55.94;101977.97;4924479;28;45550;-62
2023/05/17 05:22:24;;;;;;;;;21.25;18.75;;;;;14.07;55.79;101986.88;4996103;28;45379;-62
2023/05/17 05:24:50;;;;;;;;;15.50;14.25;;;;;14.13;55.53;101983.28;4996083;28;45353;-62
2023/05/17 05:27:16;;;;;;;;;20.40;19.20;;;;;14.12;54.82;101981.59;4996380;28;45514;-63
2023/05/17 05:29:41;;;;;;;;;15.00;13.75;;;;;13.94;55.39;101985.75;4996626;28;45447;-64
2023/05/17 05:32:07;;;;;;;;;19.25;16.00;;;;;13.81;55.62;101980.16;4979030;28;45428;-62
2023/05/17 05:34:33;;;;;;;;;16.75;14.25;;;;;13.93;55.22;101980.47;4962499;28;48557;-62
2023/05/17 05:36:58;;;;;;;;;19.00;16.00;;;;;13.80;55.20;101984.84;4978419;28;45455;-62
2023/05/17 05:39:24;;;;;;;;;15.00;15.00;;;;;13.71;55.72;101996.25;4996458;28;45414;-62
2023/05/17 05:41:50;;;;;;;;;13.25;12.50;;;;;13.67;55.43;102002.16;4996750;28;45578;-62
2023/05/17 05:44:16;;;;;;;;;20.80;17.20;;;;;13.68;55.98;102006.59;4995962;28;45859;-62
2023/05/17 05:46:42;;;;;;;;;20.75;17.25;;;;;13.80;55.91;101998.63;4996529;28;45332;-61
2023/05/17 05:49:07;;;;;;;;;20.00;16.00;;;;;13.92;54.88;101998.03;4996163;28;45403;-62
2023/05/17 05:51:33;;;;;;;;;19.50;15.50;;;;;13.95;55.43;102004.03;5011716;28;45363;-62
2023/05/17 05:53:59;;;;;;;;;17.25;17.25;;;;;13.91;55.28;102011.00;4995852;28;47374;-61
2023/05/17 05:56:26;;;;;;;;;22.50;16.75;;;;;13.86;55.37;102009.94;4995835;28;45598;-63
2023/05/17 05:58:52;;;;;;;;;17.20;17.00;;;;;13.74;55.65;102024.28;4978486;28;45308;-63
2023/05/17 06:01:17;;;;;;;;;18.00;18.00;;;;;13.64;56.18;102018.25;4978371;28;45601;-63
2023/05/17 06:03:43;;;;;;;;;24.50;21.00;;;;;13.68;55.55;102003.84;4995671;28;45574;-61
2023/05/17 06:06:09;;;;;;;;;23.25;20.00;;;;;13.81;55.49;102025.19;4995988;28;45524;-61
2023/05/17 06:08:34;;;;;;;;;27.40;22.40;;;;;13.74;55.70;102026.19;5010892;28;45471;-63
2023/05/17 06:11:00;;;;;;;;;22.00;21.00;;;;;13.69;56.16;102027.66;4996283;28;45404;-63
2023/05/17 06:13:26;;;;;;;;;23.50;19.00;;;;;13.82;55.99;102031.53;4995829;28;45897;-62
2023/05/17 06:15:51;;;;;;;;;23.00;18.50;;;;;13.75;55.77;102025.97;4995757;28;45720;-63
2023/05/17 06:18:16;;;;;;;;;14.00;14.00;;;;;13.63;55.67;102041.38;4995747;28;45718;-63
2023/05/17 06:20:42;;;;;;;;;17.25;14.50;;;;;13.56;55.94;102038.59;4995924;28;45386;-62
2023/05/17 06:23:07;;;;;;;;;15.50;14.25;;;;;13.69;55.23;102048.84;4993006;28;45919;-62
2023/05/17 06:25:33;;;;;;;;;19.25;16.25;;;;;13.72;55.54;102047.59;4992934;28;45465;-62
2023/05/17 06:28:01;;;;;;;;;14.75;13.25;;;;;13.81;55.45;102044.50;4994739;28;45283;-66
2023/05/17 06:30:27;;;;;;;;;20.20;17.80;;;;;13.59;54.67;102024.38;4995867;28;46001;-62
2023/05/17 06:32:52;;;;;;;;;16.50;12.00;;;;;13.76;55.31;102057.19;4996140;28;45439;-60
2023/05/17 06:35:18;;;;;;;;;16.25;15.50;;;;;13.81;54.92;102051.91;4995385;28;45474;-63
2023/05/17 06:37:43;;;;;;;;;15.25;15.00;;;;;13.91;54.48;102055.16;4978240;28;45371;-63
2023/05/17 06:40:09;;;;;;;;;17.00;15.00;;;;;13.92;53.98;102044.97;4995839;28;45585;-62
2023/05/17 06:42:34;;;;;;;;;17.00;13.25;;;;;13.87;54.64;102031.78;4995555;28;46549;-62
2023/05/17 06:45:00;;;;;;;;;13.00;12.75;;;;;13.98;53.98;102060.72;4995658;28;45257;-62
2023/05/17 06:47:25;;;;;;;;;11.50;10.50;;;;;13.95;54.30;102053.72;4995591;28;45490;-61
2023/05/17 06:49:51;;;;;;;;;16.75;15.50;;;;;14.08;53.93;102052.06;4996032;28;45650;-63
2023/05/17 06:52:16;;;;;;;;;14.75;14.75;;;;;14.15;53.58;102050.19;4995126;28;45874;-61
2023/05/17 06:54:42;;;;;;;;;14.50;12.75;;;;;14.12;53.35;102041.47;4995533;28;45355;-62
2023/05/17 06:57:08;;;;;;;;;14.50;14.00;;;;;14.17;53.12;102061.03;4978451;28;45268;-61
2023/05/17 06:59:35;;;;;;;;;15.80;13.40;;;;;14.06;53.04;102043.16;4995625;28;45606;-61
2023/05/17 07:02:00;;;;;;;;;14.20;12.60;;;;;14.10;52.75;102064.63;4995588;28;46412;-63
2023/05/17 07:04:26;;;;;;;;;10.50;10.50;;;;;14.01;52.71;102060.31;4961279;28;45815;-63
2023/05/17 07:06:51;;;;;;;;;13.25;11.00;;;;;14.10;52.33;102063.78;4995827;28;45567;-62
2023/05/17 07:09:18;;;;;;;;;14.00;12.75;;;;;14.08;52.85;102054.81;4995828;28;45555;-62
2023/05/17 07:11:44;;;;;;;;;13.60;13.00;;;;;14.27;52.48;102072.59;4977941;28;46337;-62
2023/05/17 07:14:09;;;;;;;;;13.25;11.75;;;;;14.17;52.67;102070.19;4995523;28;45371;-63
2023/05/17 07:16:35;;;;;;;;;18.25;13.50;;;;;14.01;52.22;102056.69;4995180;28;45510;-62
2023/05/17 07:19:00;;;;;;;;;8.25;8.25;;;;;14.26;52.56;102076.41;4995666;28;45380;-62
2023/05/17 07:21:26;;;;;;;;;12.25;10.00;;;;;14.32;52.13;102069.19;4995064;28;46616;-62
2023/05/17 07:23:51;;;;;;;;;14.00;11.50;;;;;14.38;52.30;102084.97;4995208;28;45289;-59
2023/05/17 07:26:20;;;;;;;;;12.50;12.00;;;;;14.42;52.43;102080.75;4994935;28;45245;-63
2023/05/17 07:28:46;;;;;;;;;12.60;12.20;;;;;14.32;52.38;102047.09;4995038;28;45446;-61
2023/05/17 07:31:12;;;;;;;;;16.80;13.80;;;;;14.57;52.56;102079.72;4994735;28;45514;-61
2023/05/17 07:33:37;;;;;;;;;16.25;13.75;;;;;14.58;52.29;102078.66;4994674;28;45394;-60
2023/05/17 07:36:04;;;;;;;;;9.25;9.00;;;;;14.67;51.82;102087.63;4994499;28;45384;-60
2023/05/17 07:38:29;;;;;;;;;15.40;11.80;;;;;14.58;51.81;102090.56;4994616;28;45430;-60
2023/05/17 07:40:54;;;;;;;;;12.50;11.00;;;;;14.59;51.83;102086.75;4976145;28;47086;-60
2023/05/17 07:43:20;;;;;;;;;16.50;11.50;;;;;14.69;52.01;102089.13;4967092;28;45474;-62
2023/05/17 07:45:46;;;;;;;;;11.00;11.00;;;;;14.67;51.66;102076.59;4968038;28;45316;-61
2023/05/17 07:48:12;;;;;;;;;13.50;12.50;;;;;14.87;51.35;102085.81;4974052;28;45302;-61
2023/05/17 07:50:37;;;;;;;;;14.00;12.00;;;;;14.86;51.55;102097.06;4974713;28;46835;-62
2023/05/17 07:53:03;;;;;;;;;12.50;11.75;;;;;14.83;51.03;102087.28;4973570;28;45458;-60
2023/05/17 07:55:28;;;;;;;;;10.50;10.50;;;;;14.91;50.42;102083.50;4975126;28;45380;-61
2023/05/17 07:57:53;;;;;;;;;14.00;12.00;;;;;14.58;50.42;102046.34;4975098;28;45485;-60
2023/05/17 08:00:19;;;;;;;;;10.50;10.50;;;;;14.82;49.94;102085.59;4974693;28;45867;-60
2023/05/17 08:02:45;;;;;;;;;11.75;11.75;;;;;14.86;49.85;102077.72;4974654;28;45322;-61
2023/05/17 08:05:10;;;;;;;;;13.50;10.00;;;;;14.97;49.73;102093.72;4957289;28;45344;-62
2023/05/17 08:07:36;;;;;;;;;15.50;12.25;;;;;14.91;50.22;102084.31;4975139;28;45506;-60
2023/05/17 08:10:02;;;;;;;;;14.50;12.75;;;;;14.82;50.03;102059.84;4972952;28;46102;-59
2023/05/17 08:12:27;;;;;;;;;13.50;11.75;;;;;14.96;50.12;102080.09;4973778;28;45403;-61
2023/05/17 08:14:52;;;;;;;;;14.25;13.00;;;;;15.11;49.74;102093.75;4974456;28;45325;-62
2023/05/17 08:17:18;;;;;;;;;20.25;17.25;;;;;15.12;49.54;102092.69;4978764;28;45467;-61
2023/05/17 08:19:44;;;;;;;;;12.50;10.25;;;;;15.21;49.50;102094.16;5003504;28;45478;-62
2023/05/17 08:22:10;;;;;;;;;13.00;9.25;;;;;15.21;49.50;102091.41;5012450;28;45506;-61
2023/05/17 08:24:35;;;;;;;;;15.00;10.40;;;;;15.13;49.82;102080.56;5013101;28;45930;-62
2023/05/17 08:27:01;;;;;;;;;13.00;11.25;;;;;15.28;48.83;102095.06;5015756;28;45333;-62
2023/05/17 08:29:26;;;;;;;;;17.75;12.50;;;;;15.32;48.78;102090.78;5032981;28;46182;-62
2023/05/17 08:31:55;;;;;;;;;12.50;11.00;;;;;15.31;48.85;102086.34;5014846;28;45396;-61
2023/05/17 08:34:21;;;;;;;;;11.00;10.00;;;;;15.30;49.21;102090.16;5032727;28;45948;-62
2023/05/17 08:36:46;;;;;;;;;11.75;8.50;;;;;15.30;48.89;102081.00;5023723;28;45447;-59
2023/05/17 08:39:12;;;;;;;;;7.00;7.00;;;;;15.35;48.04;102086.75;5013298;28;45950;-63
2023/05/17 08:41:38;;;;;;;;;13.00;7.50;;;;;15.40;48.29;102086.13;4979129;28;45445;-57
2023/05/17 08:44:04;;;;;;;;;9.75;9.75;;;;;15.51;48.23;102096.56;4997120;28;45788;-58
2023/05/17 08:46:30;;;;;;;;;11.00;8.50;;;;;15.46;47.58;102076.97;5033802;28;45270;-57
2023/05/17 08:48:58;;;;;;;;;13.20;10.40;;;;;15.42;47.69;102072.94;4998954;28;46746;-55
2023/05/17 08:51:25;;;;;;;;;13.00;9.80;;;;;15.60;47.70;102077.84;5001658;28;45415;-59
2023/05/17 08:53:50;;;;;;;;;9.20;9.20;;;;;15.71;45.82;102082.69;5019282;28;45382;-55
2023/05/17 08:56:17;;;;;;;;;10.00;8.00;;;;;15.69;46.08;102061.88;5036880;28;45400;-59
2023/05/17 08:58:42;;;;;;;;;9.60;8.60;;;;;15.73;45.30;102076.97;5018649;28;47779;-60
2023/05/17 09:01:08;;;;;;;;;7.00;6.00;;;;;15.84;44.66;102070.78;5018718;28;45375;-57
2023/05/17 09:03:34;;;;;;;;;10.25;8.25;;;;;15.92;44.67;102064.22;5018813;28;45407;-57
2023/05/17 09:06:00;;;;;;;;;11.00;7.50;;;;;15.87;44.76;102066.75;5012331;28;45874;-60
2023/05/17 09:08:26;;;;;;;;;15.50;8.75;;;;;15.87;44.63;102069.50;5028796;28;45461;-58
2023/05/17 09:10:53;;;;;;;;;9.00;9.00;;;;;16.01;44.52;102066.75;5010657;28;45407;-58
2023/05/17 09:13:18;;;;;;;;;8.20;7.60;;;;;16.01;43.18;102067.56;5015537;28;45364;-59
2023/05/17 09:15:46;;;;;;;;;11.25;7.00;;;;;16.08;43.45;102070.34;5015628;28;45698;-58
2023/05/17 09:18:12;;;;;;;;;6.60;5.20;;;;;16.17;43.25;102070.97;4997204;28;45789;-59
2023/05/17 09:20:38;;;;;;;;;6.50;6.50;;;;;16.21;42.89;102061.13;5015230;28;45402;-59
2023/05/17 09:23:05;;;;;;;;;7.40;5.40;;;;;16.20;42.72;102063.06;4996997;28;45478;-60
2023/05/17 09:25:31;;;;;;;;;10.40;6.80;;;;;16.15;43.71;102060.09;5015002;28;45363;-60
2023/05/17 09:28:03;;;;;;;;;9.50;8.00;;;;;16.21;44.01;102061.13;4997068;28;45415;-58
2023/05/17 09:30:29;;;;;;;;;9.20;6.80;;;;;16.25;43.44;102051.34;5013776;28;45996;-58
2023/05/17 09:32:56;;;;;;;;;9.60;6.40;;;;;16.40;43.18;102068.53;5014012;28;45456;-59
2023/05/17 09:35:29;;;;;;;;;9.80;8.80;;;;;16.33;42.91;102069.66;5001016;28;45484;-59
2023/05/17 09:38:05;;;;;;;;;13.40;10.00;;;;;16.47;43.12;102073.19;4994985;28;54968;-60
2023/05/17 09:40:30;;;;;;;;;10.80;9.00;;;;;16.55;42.98;102064.66;4981004;28;45502;-58
2023/05/17 09:42:57;;;;;;;;;7.00;5.75;;;;;16.63;42.64;102056.09;5015292;28;45386;-59
2023/05/17 09:45:23;;;;;;;;;7.80;7.00;;;;;16.75;42.66;102069.25;4959704;28;48815;-59
2023/05/17 09:47:49;;;;;;;;;10.00;8.25;;;;;16.78;42.77;102064.13;5014760;28;47484;-58
2023/05/17 09:50:18;;;;;;;;;10.75;8.00;;;;;16.88;42.84;102060.88;5014474;28;45328;-59
2023/05/17 09:52:44;;;;;;;;;2.00;2.00;;;;;16.86;41.18;102071.31;4997284;28;45475;-60
2023/05/17 09:55:14;;;;;;;;;7.25;4.50;;;;;16.77;41.74;102058.78;5015190;28;45696;-57
2023/05/17 09:57:40;;;;;;;;;8.00;6.00;;;;;16.94;41.53;102048.88;5014570;28;45469;-58
2023/05/17 10:00:12;;;;;;;;;6.80;6.80;;;;;17.07;41.32;102059.06;4997022;28;46134;-60
2023/05/17 10:02:39;;;;;;;;;6.60;6.60;;;;;17.06;41.20;102062.91;4988464;28;45709;-62
2023/05/17 10:05:11;;;;;;;;;6.40;6.40;;;;;17.07;40.89;102064.59;4978400;28;45615;-61
2023/05/17 10:07:36;;;;;;;;;8.40;6.20;;;;;17.10;41.38;102054.13;4985648;28;45901;-60
2023/05/17 10:10:02;;;;;;;;;5.25;5.25;;;;;17.17;41.71;102060.47;5012897;28;45372;-60
2023/05/17 10:12:28;;;;;;;;;7.20;6.20;;;;;17.18;41.28;102045.56;4997058;28;45399;-60
2023/05/17 10:14:54;;;;;;;;;7.60;7.60;;;;;17.20;41.50;102066.41;4996985;28;45382;-61
2023/05/17 10:17:20;;;;;;;;;5.60;5.40;;;;;17.25;40.95;102045.50;5013894;28;46594;-58
2023/05/17 10:19:46;;;;;;;;;5.75;5.75;;;;;17.37;41.19;102049.25;5014380;28;45366;-60
2023/05/17 10:22:12;;;;;;;;;8.75;6.00;;;;;17.36;40.63;102043.91;4996143;28;45433;-62
2023/05/17 10:24:37;;;;;;;;;8.00;7.50;;;;;17.44;41.38;102046.38;5014494;28;45445;-63
2023/05/17 10:27:03;;;;;;;;;8.00;8.00;;;;;17.55;40.84;102050.38;4987241;28;46202;-58
2023/05/17 10:29:30;;;;;;;;;8.20;6.40;;;;;17.55;40.69;102042.88;5013220;28;45355;-62
2023/05/17 10:31:55;;;;;;;;;9.60;7.20;;;;;17.58;40.45;102027.72;5012639;28;45444;-62
2023/05/17 10:34:21;;;;;;;;;8.25;5.50;;;;;17.66;40.71;102046.84;4996817;28;45352;-61
2023/05/17 10:36:48;;;;;;;;;11.25;6.25;;;;;17.60;40.11;102034.72;4994523;28;46026;-59
2023/05/17 10:39:13;;;;;;;;;7.00;6.00;;;;;17.69;40.08;102037.22;4994587;28;45506;-60
2023/05/17 10:41:43;;;;;;;;;5.00;4.50;;;;;17.81;39.00;102040.94;5006326;28;45474;-61
2023/05/17 10:44:11;;;;;;;;;7.00;5.00;;;;;17.89;39.25;102023.13;4982536;28;45530;-62
2023/05/17 10:46:37;;;;;;;;;5.80;5.40;;;;;17.93;39.22;102026.28;4984579;28;46626;-62
2023/05/17 10:49:02;;;;;;;;;5.50;4.75;;;;;17.89;39.17;102023.97;4994261;28;45263;-62
2023/05/17 10:51:32;;;;;;;;;6.50;5.50;;;;;17.92;38.89;102019.88;4992893;28;45314;-62
2023/05/17 10:54:11;;;;;;;;;4.20;4.20;;;;;18.06;38.07;102015.06;4994122;28;45475;-61
2023/05/17 10:56:41;;;;;;;;;7.00;5.60;;;;;18.13;38.25;102010.28;4994247;28;45299;-62
2023/05/17 10:59:23;;;;;;;;;4.40;4.40;;;;;18.18;38.72;102017.91;4988821;28;45957;-60
2023/05/17 11:01:59;;;;;;;;;10.20;4.80;;;;;18.15;38.34;101991.44;5012672;28;45327;-61
2023/05/17 11:04:38;;;;;;;;;7.00;4.80;;;;;18.35;38.33;102014.50;5014321;28;45339;-61
2023/05/17 11:07:20;;;;;;;;;4.20;4.20;;;;;18.38;36.76;102011.25;5013434;28;46667;-60
2023/05/17 11:09:50;;;;;;;;;4.20;3.60;;;;;18.56;37.31;102004.81;5013698;28;45367;-58
2023/05/17 11:12:31;;;;;;;;;5.20;4.00;;;;;18.52;37.17;102011.94;5015425;28;45387;-62
2023/05/17 11:14:56;;;;;;;;;4.00;4.00;;;;;18.49;36.69;102010.47;5003969;28;45588;-62